Airfield :
LOGIN :

Register | Disclaimer

   EN    FR    IT 

 










Legend :    VFR   Marginal VFR   IFR   Intensive IFR   Very Intensive IFR
Visi :
Ceiling :
>= 8 km
>= 3000ft
5 to 8 km
1000 to 3000 ft
1500m to 5 km
500 to 1000 ft
800 to 1500m
200 to 500 ft
< 800m
< 200 ft
Symbols :   Thunderstorms  Fog  Heavy snow  Heavy precipitations  Wind > 20 kt
SIGMETs :     Misc.  Thunderstorms  Icing  Turbulence  Mountain Waves  Volcanic Ashes






- Airport Elevation : 390 ft
- IATA code : NQY


EGHQ - Newquay

CURRENT METAR :
  • 090720Z 21006KT 9999 FEW038 06/03 Q1005

EXPIRED METARs :
  • 090650Z AUTO 22005KT 9999 SCT043/// 07/04 Q1005
  • 090620Z AUTO 26008KT 9999 FEW046/// 07/04 Q1005
  • 090550Z AUTO 25007KT 9999 BKN020/// BKN045/// 07/04 Q1005
  • 090520Z AUTO 25008KT 9999 SCT034/// 07/03 Q1005
  • 090450Z AUTO 29012KT 9999 FEW033/// 07/02 Q1005

TAF AMD TAF EGHQ
Valid from the 09 at 07:00 until the 09 at 15:00 UTC


090701Z 0907/0915 20006KT 9999 SCT035
TEMPO 0910/0915 6000 RA BKN008
PROB30
TEMPO 0912/0915 3000 RADZ BKN003
BECMG 0913/0915 28012KT



MET'MAP, your aeronautical weather chart ! - Copyright ORBIFLY December 2007 - Disclaimer

ORBIFLY MET'MAP TEAM :

Programming & Development : Alexandra Zaïnal
Concept & original design : Baudouin d'Aumeries
Assistance for programming : Marc-Olivier Méhu
Technical & hardware support : Manuel Goepfert

Contact : metmap@orbifly.com




SOURCES & CREDITS :

   NOAA